Messwerte Fort Worth

Temperatur

Temperatur
°C
1603400400 16.00 16.00 31
1603404000 17.00 17.00 31
1603407600 18.00 18.00 30
1603411200 19.00 19.00 29
1603414800 20.00 20.00 28
1603418400 21.00 21.00 27
1603422000 22.00 22.00 26
1603425600 23.00 23.00 26
1603429200 0.00 0.00 26
1603432800 1.00 1.00
1603436400 2.00 2.00 25
1603440000 3.00 3.00
1603443600 4.00 4.00 24
1603447200 5.00 5.00 24
1603450800 6.00 6.00
1603454400 7.00 7.00 23
1603458000 8.00 8.00 18
1603461600 9.00 9.00 18
1603465200 10.00 10.00 14
1603468800 11.00 11.00 12
1603472400 12.00 12.00 11
1603476000 13.00 13.00 11
1603479600 14.00 14.00 11
1603483200 15.00 15.00 12

Aktuellste Messwerte

Wettercharakter
Wetter: bedeckt
Temperatur
12 °C
Feuchtigkeit
65 %
Wind
30 km/hWindrichtung: Nordwest
Böen
45 km/h
Luftdruck
1022 hPa
Messzeit: 23. Oktober 2020, 16.00Datenquelle: METAR

Weitere Messstationen in der Nähe

Messstation Temperatur Entfernung
Fort Worth 35 °C 9 km
Fort Worth 11 °C 9 km
Fort Worth 12 °C 15 km
Fort Worth 12 °C 25 km
Arlington 14 °C 35 km
Grand Prairie 12 °C 37 km
Dallas 12 °C 41 km

Wind

Windrichtung Böen Mittelwind
° km/h km/h
1603400400 16.00 15.00 - 16.00 160° 30
1603404000 17.00 16.00 - 17.00 160° 20
1603407600 18.00 17.00 - 18.00 150° 20
1603411200 19.00 18.00 - 19.00 150° 20
1603414800 20.00 19.00 - 20.00 140° 20
1603418400 21.00 20.00 - 21.00 140° 20
1603422000 22.00 21.00 - 22.00 150° 20
1603425600 23.00 22.00 - 23.00 140° 15
1603429200 0.00 23.00 - 0.00 150° 20
1603432800 1.00 0.00 - 1.00
1603436400 2.00 1.00 - 2.00 160° 15
1603440000 3.00 2.00 - 3.00
1603443600 4.00 3.00 - 4.00 150° 60 25
1603447200 5.00 4.00 - 5.00 130° 15
1603450800 6.00 5.00 - 6.00
1603454400 7.00 6.00 - 7.00 100° 15
1603458000 8.00 7.00 - 8.00 360° 55 25
1603461600 9.00 8.00 - 9.00 90° 10
1603465200 10.00 9.00 - 10.00 340° 55 30
1603468800 11.00 10.00 - 11.00 330° 45 30
1603472400 12.00 11.00 - 12.00 340° 30
1603476000 13.00 12.00 - 13.00 350° 45 25
1603479600 14.00 13.00 - 14.00 340° 40 30
1603483200 15.00 14.00 - 15.00 330° 30

Ihre Wetterstation

Fehlt Ihre Wetterstation auf unserem Portal?

Schreiben Sie an network@meteonews.ch

Klima

Wann ist es am wärmsten? Wann regnet es am wenigsten? Unsere Klimadaten geben Auskunft.